sensor_id;sensor_type;location;lat;lon;timestamp;temperature;humidity
55598;DHT22;41463;53.186;5.552;2023-02-11T00:01:50;6.40;99.90
55598;DHT22;41463;53.186;5.552;2023-02-11T00:04:16;6.70;99.90
55598;DHT22;41463;53.186;5.552;2023-02-11T00:06:44;7.20;99.90
55598;DHT22;41463;53.186;5.552;2023-02-11T00:09:10;6.30;99.90
55598;DHT22;41463;53.186;5.552;2023-02-11T00:11:36;6.40;99.90
55598;DHT22;41463;53.186;5.552;2023-02-11T00:14:06;6.10;99.90
55598;DHT22;41463;53.186;5.552;2023-02-11T00:16:35;7.00;99.90
55598;DHT22;41463;53.186;5.552;2023-02-11T00:19:02;6.50;99.90
55598;DHT22;41463;53.186;5.552;2023-02-11T00:21:30;6.30;99.90
55598;DHT22;41463;53.186;5.552;2023-02-11T00:23:56;4.90;99.90
55598;DHT22;41463;53.186;5.552;2023-02-11T00:26:27;6.40;99.90
55598;DHT22;41463;53.186;5.552;2023-02-11T00:28:53;6.30;99.90
55598;DHT22;41463;53.186;5.552;2023-02-11T00:31:20;6.60;99.90
55598;DHT22;41463;53.186;5.552;2023-02-11T00:33:49;6.40;99.90
55598;DHT22;41463;53.186;5.552;2023-02-11T00:36:18;7.10;99.90
55598;DHT22;41463;53.186;5.552;2023-02-11T00:38:45;6.70;99.90
55598;DHT22;41463;53.186;5.552;2023-02-11T00:41:12;6.60;99.90
55598;DHT22;41463;53.186;5.552;2023-02-11T00:43:38;6.50;99.90
55598;DHT22;41463;53.186;5.552;2023-02-11T00:46:05;6.60;99.90
55598;DHT22;41463;53.186;5.552;2023-02-11T00:48:31;6.80;99.90
55598;DHT22;41463;53.186;5.552;2023-02-11T00:50:57;6.70;99.90
55598;DHT22;41463;53.186;5.552;2023-02-11T00:53:23;6.80;99.90
55598;DHT22;41463;53.186;5.552;2023-02-11T00:55:49;6.80;99.90
55598;DHT22;41463;53.186;5.552;2023-02-11T00:58:15;6.80;99.90
55598;DHT22;41463;53.186;5.552;2023-02-11T01:00:41;6.80;99.90
55598;DHT22;41463;53.186;5.552;2023-02-11T01:03:06;6.90;99.90
55598;DHT22;41463;53.186;5.552;2023-02-11T01:05:32;7.10;99.90
55598;DHT22;41463;53.186;5.552;2023-02-11T01:07:58;7.20;99.90
55598;DHT22;41463;53.186;5.552;2023-02-11T01:10:24;7.10;99.90
55598;DHT22;41463;53.186;5.552;2023-02-11T01:12:50;7.10;99.90
55598;DHT22;41463;53.186;5.552;2023-02-11T01:15:17;7.00;99.90
55598;DHT22;41463;53.186;5.552;2023-02-11T01:17:43;7.40;99.90
55598;DHT22;41463;53.186;5.552;2023-02-11T01:20:16;7.20;99.90
55598;DHT22;41463;53.186;5.552;2023-02-11T01:22:42;7.30;99.90
55598;DHT22;41463;53.186;5.552;2023-02-11T01:25:08;7.30;99.90
55598;DHT22;41463;53.186;5.552;2023-02-11T01:27:35;7.50;99.90
55598;DHT22;41463;53.186;5.552;2023-02-11T01:30:01;7.40;99.90
55598;DHT22;41463;53.186;5.552;2023-02-11T01:32:27;7.50;99.90
55598;DHT22;41463;53.186;5.552;2023-02-11T01:34:53;7.40;99.90
55598;DHT22;41463;53.186;5.552;2023-02-11T01:37:19;7.70;99.90
55598;DHT22;41463;53.186;5.552;2023-02-11T01:39:44;7.60;99.90
55598;DHT22;41463;53.186;5.552;2023-02-11T01:42:15;6.30;99.90
55598;DHT22;41463;53.186;5.552;2023-02-11T01:44:41;7.60;99.90
55598;DHT22;41463;53.186;5.552;2023-02-11T01:47:07;8.20;99.90
55598;DHT22;41463;53.186;5.552;2023-02-11T01:49:39;7.90;99.90
55598;DHT22;41463;53.186;5.552;2023-02-11T01:54:48;8.10;99.90
55598;DHT22;41463;53.186;5.552;2023-02-11T01:57:35;7.80;99.90
55598;DHT22;41463;53.186;5.552;2023-02-11T02:00:17;8.30;99.90
55598;DHT22;41463;53.186;5.552;2023-02-11T02:05:32;7.50;99.90
55598;DHT22;41463;53.186;5.552;2023-02-11T02:08:22;7.40;99.90
55598;DHT22;41463;53.186;5.552;2023-02-11T02:10:51;7.40;99.90
55598;DHT22;41463;53.186;5.552;2023-02-11T02:13:22;7.60;99.90
55598;DHT22;41463;53.186;5.552;2023-02-11T02:15:56;7.50;99.90
55598;DHT22;41463;53.186;5.552;2023-02-11T02:21:28;7.60;99.90
55598;DHT22;41463;53.186;5.552;2023-02-11T02:27:19;7.70;99.90
55598;DHT22;41463;53.186;5.552;2023-02-11T02:33:05;7.70;99.90
55598;DHT22;41463;53.186;5.552;2023-02-11T02:35:52;7.70;99.90
55598;DHT22;41463;53.186;5.552;2023-02-11T02:38:37;7.70;99.90
55598;DHT22;41463;53.186;5.552;2023-02-11T02:41:16;7.80;99.90
55598;DHT22;41463;53.186;5.552;2023-02-11T02:43:47;7.80;99.90
55598;DHT22;41463;53.186;5.552;2023-02-11T02:46:17;7.80;99.90
55598;DHT22;41463;53.186;5.552;2023-02-11T02:48:45;7.80;99.90
55598;DHT22;41463;53.186;5.552;2023-02-11T02:57:03;8.30;99.90
55598;DHT22;41463;53.186;5.552;2023-02-11T03:02:21;8.80;99.90
55598;DHT22;41463;53.186;5.552;2023-02-11T03:10:21;7.80;99.90
55598;DHT22;41463;53.186;5.552;2023-02-11T03:12:50;7.80;99.90
55598;DHT22;41463;53.186;5.552;2023-02-11T03:15:19;7.80;99.90
55598;DHT22;41463;53.186;5.552;2023-02-11T03:17:47;8.20;99.90
55598;DHT22;41463;53.186;5.552;2023-02-11T03:20:17;7.80;99.90
55598;DHT22;41463;53.186;5.552;2023-02-11T03:23:14;7.90;99.90
55598;DHT22;41463;53.186;5.552;2023-02-11T03:25:50;7.80;99.90
55598;DHT22;41463;53.186;5.552;2023-02-11T03:28:29;7.80;99.90
55598;DHT22;41463;53.186;5.552;2023-02-11T03:31:17;7.80;99.90
55598;DHT22;41463;53.186;5.552;2023-02-11T03:34:12;8.00;99.90
55598;DHT22;41463;53.186;5.552;2023-02-11T03:36:45;8.10;99.90
55598;DHT22;41463;53.186;5.552;2023-02-11T03:39:17;7.80;99.90
55598;DHT22;41463;53.186;5.552;2023-02-11T03:41:45;7.80;99.90
55598;DHT22;41463;53.186;5.552;2023-02-11T03:44:14;7.80;99.90
55598;DHT22;41463;53.186;5.552;2023-02-11T03:46:43;8.40;99.90
55598;DHT22;41463;53.186;5.552;2023-02-11T03:49:11;8.20;99.90
55598;DHT22;41463;53.186;5.552;2023-02-11T03:51:39;7.90;99.90
55598;DHT22;41463;53.186;5.552;2023-02-11T03:54:09;7.80;99.90
55598;DHT22;41463;53.186;5.552;2023-02-11T03:56:45;7.90;99.90
55598;DHT22;41463;53.186;5.552;2023-02-11T03:59:13;8.20;99.90
55598;DHT22;41463;53.186;5.552;2023-02-11T04:01:39;7.80;99.90
55598;DHT22;41463;53.186;5.552;2023-02-11T04:04:05;7.80;99.90
55598;DHT22;41463;53.186;5.552;2023-02-11T04:06:31;8.00;99.90
55598;DHT22;41463;53.186;5.552;2023-02-11T04:08:56;7.80;99.90
55598;DHT22;41463;53.186;5.552;2023-02-11T04:11:22;8.10;99.90
55598;DHT22;41463;53.186;5.552;2023-02-11T04:13:48;7.80;99.90
55598;DHT22;41463;53.186;5.552;2023-02-11T04:16:14;7.90;99.90
55598;DHT22;41463;53.186;5.552;2023-02-11T04:18:43;8.00;99.90
55598;DHT22;41463;53.186;5.552;2023-02-11T04:21:12;8.30;99.90
55598;DHT22;41463;53.186;5.552;2023-02-11T04:23:37;8.60;99.90
55598;DHT22;41463;53.186;5.552;2023-02-11T04:26:06;7.90;99.90
55598;DHT22;41463;53.186;5.552;2023-02-11T04:28:32;7.90;99.90
55598;DHT22;41463;53.186;5.552;2023-02-11T04:30:59;7.90;99.90
55598;DHT22;41463;53.186;5.552;2023-02-11T04:33:25;7.90;99.90
55598;DHT22;41463;53.186;5.552;2023-02-11T04:35:51;7.90;99.90
55598;DHT22;41463;53.186;5.552;2023-02-11T04:38:16;8.80;99.90
55598;DHT22;41463;53.186;5.552;2023-02-11T04:40:42;7.90;99.90
55598;DHT22;41463;53.186;5.552;2023-02-11T04:43:08;7.90;99.90
55598;DHT22;41463;53.186;5.552;2023-02-11T04:45:34;8.00;99.90
55598;DHT22;41463;53.186;5.552;2023-02-11T04:48:03;8.10;99.90
55598;DHT22;41463;53.186;5.552;2023-02-11T04:50:29;8.10;99.90
55598;DHT22;41463;53.186;5.552;2023-02-11T04:52:55;8.10;99.90
55598;DHT22;41463;53.186;5.552;2023-02-11T04:55:21;8.10;99.90
55598;DHT22;41463;53.186;5.552;2023-02-11T04:57:47;8.10;99.90
55598;DHT22;41463;53.186;5.552;2023-02-11T05:00:13;8.20;99.90
55598;DHT22;41463;53.186;5.552;2023-02-11T05:02:41;8.20;99.90
55598;DHT22;41463;53.186;5.552;2023-02-11T05:05:07;9.20;99.90
55598;DHT22;41463;53.186;5.552;2023-02-11T05:07:33;8.30;99.90
55598;DHT22;41463;53.186;5.552;2023-02-11T05:09:59;8.30;99.90
55598;DHT22;41463;53.186;5.552;2023-02-11T05:12:25;8.40;99.90
55598;DHT22;41463;53.186;5.552;2023-02-11T05:14:51;8.30;99.90
55598;DHT22;41463;53.186;5.552;2023-02-11T05:17:16;9.10;99.90
55598;DHT22;41463;53.186;5.552;2023-02-11T05:19:43;8.50;99.90
55598;DHT22;41463;53.186;5.552;2023-02-11T05:22:08;8.70;99.90
55598;DHT22;41463;53.186;5.552;2023-02-11T05:24:34;8.30;99.90
55598;DHT22;41463;53.186;5.552;2023-02-11T05:27:00;9.20;99.90
55598;DHT22;41463;53.186;5.552;2023-02-11T05:29:29;8.30;99.90
55598;DHT22;41463;53.186;5.552;2023-02-11T05:31:58;8.20;99.90
55598;DHT22;41463;53.186;5.552;2023-02-11T05:34:24;8.30;99.90
55598;DHT22;41463;53.186;5.552;2023-02-11T05:36:49;8.10;99.90
55598;DHT22;41463;53.186;5.552;2023-02-11T05:39:15;8.10;99.90
55598;DHT22;41463;53.186;5.552;2023-02-11T05:41:44;8.30;99.90
55598;DHT22;41463;53.186;5.552;2023-02-11T05:44:12;8.40;99.90
55598;DHT22;41463;53.186;5.552;2023-02-11T05:46:38;8.10;99.90
55598;DHT22;41463;53.186;5.552;2023-02-11T05:49:04;7.90;99.90
55598;DHT22;41463;53.186;5.552;2023-02-11T05:51:30;8.50;99.90
55598;DHT22;41463;53.186;5.552;2023-02-11T05:53:56;7.80;99.90
55598;DHT22;41463;53.186;5.552;2023-02-11T05:56:22;8.10;99.90
55598;DHT22;41463;53.186;5.552;2023-02-11T05:58:48;6.00;99.90
55598;DHT22;41463;53.186;5.552;2023-02-11T06:01:13;8.00;99.90
55598;DHT22;41463;53.186;5.552;2023-02-11T06:03:39;8.30;99.90
55598;DHT22;41463;53.186;5.552;2023-02-11T06:06:17;8.20;99.90
55598;DHT22;41463;53.186;5.552;2023-02-11T06:08:43;8.00;99.90
55598;DHT22;41463;53.186;5.552;2023-02-11T06:11:09;8.40;99.90
55598;DHT22;41463;53.186;5.552;2023-02-11T06:13:38;8.10;99.90
55598;DHT22;41463;53.186;5.552;2023-02-11T06:16:04;7.20;99.90
55598;DHT22;41463;53.186;5.552;2023-02-11T06:18:29;7.50;99.90
55598;DHT22;41463;53.186;5.552;2023-02-11T06:20:59;7.70;99.90
55598;DHT22;41463;53.186;5.552;2023-02-11T06:23:27;7.90;99.90
55598;DHT22;41463;53.186;5.552;2023-02-11T06:25:53;7.70;99.90
55598;DHT22;41463;53.186;5.552;2023-02-11T06:28:19;8.30;99.90
55598;DHT22;41463;53.186;5.552;2023-02-11T06:30:44;7.90;99.90
55598;DHT22;41463;53.186;5.552;2023-02-11T06:33:10;8.10;99.90
55598;DHT22;41463;53.186;5.552;2023-02-11T06:35:39;8.10;99.90
55598;DHT22;41463;53.186;5.552;2023-02-11T06:38:05;8.00;99.90
55598;DHT22;41463;53.186;5.552;2023-02-11T06:40:31;7.80;99.90
55598;DHT22;41463;53.186;5.552;2023-02-11T06:43:00;8.10;99.90
55598;DHT22;41463;53.186;5.552;2023-02-11T06:45:26;7.90;99.90
55598;DHT22;41463;53.186;5.552;2023-02-11T06:47:54;7.80;99.90
55598;DHT22;41463;53.186;5.552;2023-02-11T06:50:19;7.80;99.90
55598;DHT22;41463;53.186;5.552;2023-02-11T06:52:45;8.10;99.90
55598;DHT22;41463;53.186;5.552;2023-02-11T06:55:12;7.90;99.90
55598;DHT22;41463;53.186;5.552;2023-02-11T06:57:38;8.30;99.90
55598;DHT22;41463;53.186;5.552;2023-02-11T07:00:04;8.00;99.90
55598;DHT22;41463;53.186;5.552;2023-02-11T07:02:30;8.10;99.90
55598;DHT22;41463;53.186;5.552;2023-02-11T07:04:55;7.80;99.90
55598;DHT22;41463;53.186;5.552;2023-02-11T07:07:21;7.80;99.90
55598;DHT22;41463;53.186;5.552;2023-02-11T07:09:47;7.70;99.90
55598;DHT22;41463;53.186;5.552;2023-02-11T07:12:13;7.70;99.90
55598;DHT22;41463;53.186;5.552;2023-02-11T07:14:39;6.70;99.90
55598;DHT22;41463;53.186;5.552;2023-02-11T07:17:05;8.00;99.90
55598;DHT22;41463;53.186;5.552;2023-02-11T07:19:40;7.60;99.90
55598;DHT22;41463;53.186;5.552;2023-02-11T07:22:05;7.70;99.90
55598;DHT22;41463;53.186;5.552;2023-02-11T07:24:31;7.80;99.90
55598;DHT22;41463;53.186;5.552;2023-02-11T07:26:57;7.70;99.90
55598;DHT22;41463;53.186;5.552;2023-02-11T07:29:23;7.80;99.90
55598;DHT22;41463;53.186;5.552;2023-02-11T07:31:49;8.00;99.90
55598;DHT22;41463;53.186;5.552;2023-02-11T07:34:15;8.10;99.90
55598;DHT22;41463;53.186;5.552;2023-02-11T07:36:50;7.70;99.90
55598;DHT22;41463;53.186;5.552;2023-02-11T07:39:16;8.00;99.90
55598;DHT22;41463;53.186;5.552;2023-02-11T07:41:42;7.50;99.90
55598;DHT22;41463;53.186;5.552;2023-02-11T07:44:09;7.80;99.90
55598;DHT22;41463;53.186;5.552;2023-02-11T07:46:35;7.60;99.90
55598;DHT22;41463;53.186;5.552;2023-02-11T07:49:00;7.60;99.90
55598;DHT22;41463;53.186;5.552;2023-02-11T07:51:29;7.60;99.90
55598;DHT22;41463;53.186;5.552;2023-02-11T07:53:57;7.60;99.90
55598;DHT22;41463;53.186;5.552;2023-02-11T07:56:23;7.60;99.90
55598;DHT22;41463;53.186;5.552;2023-02-11T07:58:50;7.90;99.90
55598;DHT22;41463;53.186;5.552;2023-02-11T08:01:18;7.70;99.90
55598;DHT22;41463;53.186;5.552;2023-02-11T08:03:47;7.70;99.90
55598;DHT22;41463;53.186;5.552;2023-02-11T08:06:15;7.90;99.90
55598;DHT22;41463;53.186;5.552;2023-02-11T08:08:42;7.90;99.90
55598;DHT22;41463;53.186;5.552;2023-02-11T08:11:10;7.60;99.90
55598;DHT22;41463;53.186;5.552;2023-02-11T08:13:36;7.60;99.90
55598;DHT22;41463;53.186;5.552;2023-02-11T08:16:03;7.60;99.90
55598;DHT22;41463;53.186;5.552;2023-02-11T08:18:30;7.70;99.90
55598;DHT22;41463;53.186;5.552;2023-02-11T08:21:05;7.60;99.90
55598;DHT22;41463;53.186;5.552;2023-02-11T08:23:32;7.50;99.90
55598;DHT22;41463;53.186;5.552;2023-02-11T08:26:18;7.90;99.90
55598;DHT22;41463;53.186;5.552;2023-02-11T08:28:46;7.80;99.90
55598;DHT22;41463;53.186;5.552;2023-02-11T08:31:19;8.00;99.90
55598;DHT22;41463;53.186;5.552;2023-02-11T08:33:45;8.40;99.90
55598;DHT22;41463;53.186;5.552;2023-02-11T08:36:13;8.30;99.90
55598;DHT22;41463;53.186;5.552;2023-02-11T08:38:39;8.00;99.90
55598;DHT22;41463;53.186;5.552;2023-02-11T08:41:06;8.60;99.90
55598;DHT22;41463;53.186;5.552;2023-02-11T08:43:32;8.20;99.90
55598;DHT22;41463;53.186;5.552;2023-02-11T08:46:01;8.20;99.90
55598;DHT22;41463;53.186;5.552;2023-02-11T08:48:27;8.90;99.90
55598;DHT22;41463;53.186;5.552;2023-02-11T08:50:56;8.20;99.90
55598;DHT22;41463;53.186;5.552;2023-02-11T08:53:22;8.50;99.90
55598;DHT22;41463;53.186;5.552;2023-02-11T08:55:53;8.10;99.90
55598;DHT22;41463;53.186;5.552;2023-02-11T08:58:33;8.20;99.90
55598;DHT22;41463;53.186;5.552;2023-02-11T09:01:17;8.20;99.90
55598;DHT22;41463;53.186;5.552;2023-02-11T09:03:43;8.60;99.90
55598;DHT22;41463;53.186;5.552;2023-02-11T09:06:21;8.20;99.90
55598;DHT22;41463;53.186;5.552;2023-02-11T09:08:49;8.80;99.90
55598;DHT22;41463;53.186;5.552;2023-02-11T09:11:17;8.60;99.90
55598;DHT22;41463;53.186;5.552;2023-02-11T09:13:44;8.30;99.90
55598;DHT22;41463;53.186;5.552;2023-02-11T09:16:22;8.50;99.90
55598;DHT22;41463;53.186;5.552;2023-02-11T09:18:49;9.80;99.90
55598;DHT22;41463;53.186;5.552;2023-02-11T09:21:17;8.50;99.90
55598;DHT22;41463;53.186;5.552;2023-02-11T09:23:43;8.60;99.90
55598;DHT22;41463;53.186;5.552;2023-02-11T09:28:45;8.60;99.90
55598;DHT22;41463;53.186;5.552;2023-02-11T09:31:14;8.70;99.90
55598;DHT22;41463;53.186;5.552;2023-02-11T09:33:42;8.80;99.90
55598;DHT22;41463;53.186;5.552;2023-02-11T09:36:18;9.00;99.90
55598;DHT22;41463;53.186;5.552;2023-02-11T09:38:45;9.30;99.90
55598;DHT22;41463;53.186;5.552;2023-02-11T09:44:08;8.70;99.90
55598;DHT22;41463;53.186;5.552;2023-02-11T09:46:39;8.70;99.90
55598;DHT22;41463;53.186;5.552;2023-02-11T09:49:06;9.00;99.90
55598;DHT22;41463;53.186;5.552;2023-02-11T09:57:16;9.10;99.90
55598;DHT22;41463;53.186;5.552;2023-02-11T09:59:42;8.80;99.90
55598;DHT22;41463;53.186;5.552;2023-02-11T10:02:33;8.90;99.90
55598;DHT22;41463;53.186;5.552;2023-02-11T10:08:45;8.90;99.90
55598;DHT22;41463;53.186;5.552;2023-02-11T10:22:19;8.90;99.90
55598;DHT22;41463;53.186;5.552;2023-02-11T10:24:56;8.90;99.90
55598;DHT22;41463;53.186;5.552;2023-02-11T10:27:41;9.20;99.90
55598;DHT22;41463;53.186;5.552;2023-02-11T10:30:33;9.10;99.90
55598;DHT22;41463;53.186;5.552;2023-02-11T10:33:26;9.10;99.90
55598;DHT22;41463;53.186;5.552;2023-02-11T10:35:52;10.00;99.90
55598;DHT22;41463;53.186;5.552;2023-02-11T10:38:18;10.20;99.90
55598;DHT22;41463;53.186;5.552;2023-02-11T10:40:44;9.20;99.90
55598;DHT22;41463;53.186;5.552;2023-02-11T10:43:14;9.90;99.90
55598;DHT22;41463;53.186;5.552;2023-02-11T10:45:52;9.30;99.90
55598;DHT22;41463;53.186;5.552;2023-02-11T10:48:46;9.20;99.90
55598;DHT22;41463;53.186;5.552;2023-02-11T10:51:25;9.10;99.90
55598;DHT22;41463;53.186;5.552;2023-02-11T10:56:38;9.40;99.90
55598;DHT22;41463;53.186;5.552;2023-02-11T11:01:52;9.10;99.90
55598;DHT22;41463;53.186;5.552;2023-02-11T11:07:26;9.10;99.90
55598;DHT22;41463;53.186;5.552;2023-02-11T11:12:38;9.20;99.90
55598;DHT22;41463;53.186;5.552;2023-02-11T11:15:20;9.20;99.90
55598;DHT22;41463;53.186;5.552;2023-02-11T11:17:48;10.50;99.90
55598;DHT22;41463;53.186;5.552;2023-02-11T11:22:43;10.10;99.90
55598;DHT22;41463;53.186;5.552;2023-02-11T11:25:40;9.40;99.90
55598;DHT22;41463;53.186;5.552;2023-02-11T11:28:20;9.30;99.90
55598;DHT22;41463;53.186;5.552;2023-02-11T11:30:47;9.40;99.90
55598;DHT22;41463;53.186;5.552;2023-02-11T11:33:23;9.30;99.90
55598;DHT22;41463;53.186;5.552;2023-02-11T11:36:02;11.00;99.90
55598;DHT22;41463;53.186;5.552;2023-02-11T11:38:32;9.90;99.90
55598;DHT22;41463;53.186;5.552;2023-02-11T11:41:27;9.80;99.90
55598;DHT22;41463;53.186;5.552;2023-02-11T11:44:12;8.30;99.90
55598;DHT22;41463;53.186;5.552;2023-02-11T11:46:43;9.40;99.90
55598;DHT22;41463;53.186;5.552;2023-02-11T11:49:29;9.40;99.90
55598;DHT22;41463;53.186;5.552;2023-02-11T11:52:18;9.90;99.90
55598;DHT22;41463;53.186;5.552;2023-02-11T11:54:50;9.70;99.90
55598;DHT22;41463;53.186;5.552;2023-02-11T11:57:25;9.60;99.90
55598;DHT22;41463;53.186;5.552;2023-02-11T11:59:59;10.50;99.90
55598;DHT22;41463;53.186;5.552;2023-02-11T12:10:38;10.00;99.90
55598;DHT22;41463;53.186;5.552;2023-02-11T12:23:49;9.60;99.90
55598;DHT22;41463;53.186;5.552;2023-02-11T12:26:30;9.60;99.90
55598;DHT22;41463;53.186;5.552;2023-02-11T12:29:26;9.50;99.90
55598;DHT22;41463;53.186;5.552;2023-02-11T12:31:58;9.60;99.90
55598;DHT22;41463;53.186;5.552;2023-02-11T12:37:50;9.70;99.90
55598;DHT22;41463;53.186;5.552;2023-02-11T12:40:48;9.70;99.90
55598;DHT22;41463;53.186;5.552;2023-02-11T12:43:24;9.70;99.90
55598;DHT22;41463;53.186;5.552;2023-02-11T12:46:00;9.70;99.90
55598;DHT22;41463;53.186;5.552;2023-02-11T12:54:19;9.80;99.90
55598;DHT22;41463;53.186;5.552;2023-02-11T12:57:20;9.70;99.90
55598;DHT22;41463;53.186;5.552;2023-02-11T13:00:02;9.70;99.90
55598;DHT22;41463;53.186;5.552;2023-02-11T13:08:26;9.70;99.90
55598;DHT22;41463;53.186;5.552;2023-02-11T13:11:29;8.00;99.90
55598;DHT22;41463;53.186;5.552;2023-02-11T13:16:43;9.90;99.90
55598;DHT22;41463;53.186;5.552;2023-02-11T13:19:16;9.70;99.90
55598;DHT22;41463;53.186;5.552;2023-02-11T13:29:37;9.60;99.90
55598;DHT22;41463;53.186;5.552;2023-02-11T13:32:10;9.50;99.90
55598;DHT22;41463;53.186;5.552;2023-02-11T13:37:27;8.10;99.90
55598;DHT22;41463;53.186;5.552;2023-02-11T13:42:54;9.50;99.90
55598;DHT22;41463;53.186;5.552;2023-02-11T13:45:41;9.50;99.90
55598;DHT22;41463;53.186;5.552;2023-02-11T13:48:31;9.60;99.90
55598;DHT22;41463;53.186;5.552;2023-02-11T13:51:31;9.60;99.90
55598;DHT22;41463;53.186;5.552;2023-02-11T13:53:58;9.50;99.90
55598;DHT22;41463;53.186;5.552;2023-02-11T13:56:30;7.80;99.90
55598;DHT22;41463;53.186;5.552;2023-02-11T13:58:59;9.60;99.90
55598;DHT22;41463;53.186;5.552;2023-02-11T14:04:35;9.60;99.90
55598;DHT22;41463;53.186;5.552;2023-02-11T14:07:37;9.50;99.90
55598;DHT22;41463;53.186;5.552;2023-02-11T14:10:52;9.40;99.90
55598;DHT22;41463;53.186;5.552;2023-02-11T14:15:46;9.30;99.90
55598;DHT22;41463;53.186;5.552;2023-02-11T14:41:25;9.30;99.90
55598;DHT22;41463;53.186;5.552;2023-02-11T14:44:30;9.70;99.90
55598;DHT22;41463;53.186;5.552;2023-02-11T14:47:03;9.40;99.90
55598;DHT22;41463;53.186;5.552;2023-02-11T14:49:38;9.50;99.90
55598;DHT22;41463;53.186;5.552;2023-02-11T14:52:32;9.30;99.90
55598;DHT22;41463;53.186;5.552;2023-02-11T14:55:11;9.40;99.90
55598;DHT22;41463;53.186;5.552;2023-02-11T14:57:40;9.10;99.90
55598;DHT22;41463;53.186;5.552;2023-02-11T15:00:20;9.20;99.90
55598;DHT22;41463;53.186;5.552;2023-02-11T15:02:47;9.30;99.90
55598;DHT22;41463;53.186;5.552;2023-02-11T15:05:18;9.30;99.90
55598;DHT22;41463;53.186;5.552;2023-02-11T15:07:55;9.10;99.90
55598;DHT22;41463;53.186;5.552;2023-02-11T15:13:04;9.10;99.90
55598;DHT22;41463;53.186;5.552;2023-02-11T15:15:31;9.00;99.90
55598;DHT22;41463;53.186;5.552;2023-02-11T15:18:00;9.40;99.90
55598;DHT22;41463;53.186;5.552;2023-02-11T15:20:32;9.10;99.90
55598;DHT22;41463;53.186;5.552;2023-02-11T15:23:05;9.20;99.90
55598;DHT22;41463;53.186;5.552;2023-02-11T15:25:32;8.40;99.90
55598;DHT22;41463;53.186;5.552;2023-02-11T15:27:58;7.60;99.90
55598;DHT22;41463;53.186;5.552;2023-02-11T15:30:31;9.00;99.90
55598;DHT22;41463;53.186;5.552;2023-02-11T15:33:01;9.10;99.90
55598;DHT22;41463;53.186;5.552;2023-02-11T15:35:31;8.90;99.90
55598;DHT22;41463;53.186;5.552;2023-02-11T15:38:03;8.80;99.90
55598;DHT22;41463;53.186;5.552;2023-02-11T15:40:34;8.90;99.90
55598;DHT22;41463;53.186;5.552;2023-02-11T15:43:05;9.00;99.90
55598;DHT22;41463;53.186;5.552;2023-02-11T15:45:34;8.90;99.90
55598;DHT22;41463;53.186;5.552;2023-02-11T15:48:12;8.80;99.90
55598;DHT22;41463;53.186;5.552;2023-02-11T15:50:41;8.80;99.90
55598;DHT22;41463;53.186;5.552;2023-02-11T15:56:19;7.30;99.90
55598;DHT22;41463;53.186;5.552;2023-02-11T15:58:51;8.70;99.90
55598;DHT22;41463;53.186;5.552;2023-02-11T16:01:18;8.90;99.90
55598;DHT22;41463;53.186;5.552;2023-02-11T16:03:49;8.70;99.90
55598;DHT22;41463;53.186;5.552;2023-02-11T16:06:20;9.20;99.90
55598;DHT22;41463;53.186;5.552;2023-02-11T16:14:21;8.50;99.90
55598;DHT22;41463;53.186;5.552;2023-02-11T16:17:11;8.60;99.90
55598;DHT22;41463;53.186;5.552;2023-02-11T16:19:43;8.40;99.90
55598;DHT22;41463;53.186;5.552;2023-02-11T16:22:13;8.80;99.90
55598;DHT22;41463;53.186;5.552;2023-02-11T16:24:40;8.60;99.90
55598;DHT22;41463;53.186;5.552;2023-02-11T16:27:27;8.20;99.90
55598;DHT22;41463;53.186;5.552;2023-02-11T16:29:56;9.50;99.90
55598;DHT22;41463;53.186;5.552;2023-02-11T16:32:24;8.50;99.90
55598;DHT22;41463;53.186;5.552;2023-02-11T16:34:53;8.60;99.90
55598;DHT22;41463;53.186;5.552;2023-02-11T16:37:24;8.20;99.90
55598;DHT22;41463;53.186;5.552;2023-02-11T16:39:54;8.50;99.90
55598;DHT22;41463;53.186;5.552;2023-02-11T16:42:20;8.10;99.90
55598;DHT22;41463;53.186;5.552;2023-02-11T16:44:52;8.00;99.90
55598;DHT22;41463;53.186;5.552;2023-02-11T16:47:29;8.40;99.90
55598;DHT22;41463;53.186;5.552;2023-02-11T16:49:56;8.10;99.90
55598;DHT22;41463;53.186;5.552;2023-02-11T16:52:22;7.90;99.90
55598;DHT22;41463;53.186;5.552;2023-02-11T16:54:49;8.30;99.90
55598;DHT22;41463;53.186;5.552;2023-02-11T16:57:23;7.90;99.90
55598;DHT22;41463;53.186;5.552;2023-02-11T16:59:55;9.50;99.90
55598;DHT22;41463;53.186;5.552;2023-02-11T17:02:30;8.20;99.90
55598;DHT22;41463;53.186;5.552;2023-02-11T17:05:03;8.00;99.90
55598;DHT22;41463;53.186;5.552;2023-02-11T17:07:30;7.90;99.90
55598;DHT22;41463;53.186;5.552;2023-02-11T17:09:58;8.90;99.90
55598;DHT22;41463;53.186;5.552;2023-02-11T17:12:25;7.70;99.90
55598;DHT22;41463;53.186;5.552;2023-02-11T17:14:54;7.70;99.90
55598;DHT22;41463;53.186;5.552;2023-02-11T17:17:26;8.10;99.90
55598;DHT22;41463;53.186;5.552;2023-02-11T17:19:54;7.90;99.90
55598;DHT22;41463;53.186;5.552;2023-02-11T17:22:23;7.70;99.90
55598;DHT22;41463;53.186;5.552;2023-02-11T17:24:49;8.10;99.90
55598;DHT22;41463;53.186;5.552;2023-02-11T17:27:15;7.90;99.90
55598;DHT22;41463;53.186;5.552;2023-02-11T17:29:41;7.80;99.90
55598;DHT22;41463;53.186;5.552;2023-02-11T17:32:07;7.60;99.90
55598;DHT22;41463;53.186;5.552;2023-02-11T17:34:33;7.50;99.90
55598;DHT22;41463;53.186;5.552;2023-02-11T17:36:59;7.60;99.90
55598;DHT22;41463;53.186;5.552;2023-02-11T17:39:27;5.80;99.90
55598;DHT22;41463;53.186;5.552;2023-02-11T17:41:53;7.90;99.90
55598;DHT22;41463;53.186;5.552;2023-02-11T17:44:19;7.60;99.90
55598;DHT22;41463;53.186;5.552;2023-02-11T17:46:45;7.70;99.90
55598;DHT22;41463;53.186;5.552;2023-02-11T17:49:11;7.60;99.90
55598;DHT22;41463;53.186;5.552;2023-02-11T17:51:37;8.00;99.90
55598;DHT22;41463;53.186;5.552;2023-02-11T17:54:10;7.80;99.90
55598;DHT22;41463;53.186;5.552;2023-02-11T17:56:37;8.00;99.90
55598;DHT22;41463;53.186;5.552;2023-02-11T17:59:06;7.60;99.90
55598;DHT22;41463;53.186;5.552;2023-02-11T18:01:34;7.90;99.90
55598;DHT22;41463;53.186;5.552;2023-02-11T18:04:00;7.50;99.90
55598;DHT22;41463;53.186;5.552;2023-02-11T18:06:27;7.40;99.90
55598;DHT22;41463;53.186;5.552;2023-02-11T18:08:59;7.40;99.90
55598;DHT22;41463;53.186;5.552;2023-02-11T18:11:28;7.90;99.90
55598;DHT22;41463;53.186;5.552;2023-02-11T18:13:57;7.30;99.90
55598;DHT22;41463;53.186;5.552;2023-02-11T18:16:23;7.40;99.90
55598;DHT22;41463;53.186;5.552;2023-02-11T18:18:50;6.90;99.90
55598;DHT22;41463;53.186;5.552;2023-02-11T18:21:20;7.60;99.90
55598;DHT22;41463;53.186;5.552;2023-02-11T18:23:47;7.20;99.90
55598;DHT22;41463;53.186;5.552;2023-02-11T18:26:15;7.60;99.90
55598;DHT22;41463;53.186;5.552;2023-02-11T18:28:41;7.30;99.90
55598;DHT22;41463;53.186;5.552;2023-02-11T18:31:08;7.30;99.90
55598;DHT22;41463;53.186;5.552;2023-02-11T18:33:36;6.90;99.90
55598;DHT22;41463;53.186;5.552;2023-02-11T18:36:10;7.30;99.90
55598;DHT22;41463;53.186;5.552;2023-02-11T18:38:36;7.20;99.90
55598;DHT22;41463;53.186;5.552;2023-02-11T18:41:03;7.40;99.90
55598;DHT22;41463;53.186;5.552;2023-02-11T18:43:30;5.50;99.90
55598;DHT22;41463;53.186;5.552;2023-02-11T18:45:58;7.50;99.90